M I D A S
Marine Information and Data Acquisition System
Tripno 1073 of the Zeeleeuw from 2006-04-20 07:26:10 to 2006-04-20 11:05:24
Back to CruiseResearch ActivitiesStationsMapUnderway DataData graphs

EquipmentUnitsComment
TimeDGPSUTC
LatitudeDGPSDM.mWGS84
LongitudeDGPSDM.mWGS84
HeadingGyrodeg 
SOGDGPSknotsSpeed over ground
COGDGPSdegCourse over ground
DepthEcho soundermeters200 kHz
Missing or incorrect values are displayed as -999
Navigation data collected by the RV Zeeleeuw from 2006-04-20 07:25:49 to 2006-04-20 11:23:34
Time Latitude Longitude Heading SOG COG Depth
2006-04-20 07:26:54 51°13.616 2°56.032 111.4 3.6 290 -999
2006-04-20 07:27:55 51°13.641 2°55.932 121.5 4.5 297 -999
2006-04-20 07:28:54 51°13.686 2°55.825 128 4.5 305 -999
2006-04-20 07:29:55 51°13.717 2°55.739 110.8 3 294 -999
2006-04-20 07:30:54 51°13.728 2°55.717 68.2 1.2 48 -999
2006-04-20 07:31:54 51°13.724 2°55.709 38.5 1.8 223 -999
2006-04-20 07:32:54 51°13.748 2°55.695 342.2 3.9 337 10.9
2006-04-20 07:33:54 51°13.816 2°55.635 334.7 4.8 332 10.8
2006-04-20 07:34:54 51°13.887 2°55.579 339.5 4.8 335 10.7
2006-04-20 07:35:54 51°13.982 2°55.515 341.8 7.6 338 10.6
2006-04-20 07:36:54 51°14.105 2°55.431 340.1 8.4 336 10.5
2006-04-20 07:37:54 51°14.232 2°55.305 324.3 9.3 320 -999
2006-04-20 07:38:54 51°14.336 2°55.117 311.4 9.6 308 10.4
2006-04-20 07:39:54 51°14.454 2°54.947 332.1 9.6 327 10.4
2006-04-20 07:40:54 51°14.594 2°54.813 334.1 10.5 328 9.7
2006-04-20 07:41:54 51°14.763 2°54.635 330.9 13.1 327 9.6
2006-04-20 07:42:54 51°14.956 2°54.46 332.7 13.3 329 9.2
2006-04-20 07:43:54 51°15.144 2°54.278 335 13.4 332 9
2006-04-20 07:44:54 51°15.339 2°54.105 332.2 13.4 326 9.6
2006-04-20 07:45:54 51°15.53 2°53.932 335.8 13 329 10.4
2006-04-20 07:46:54 51°15.721 2°53.767 339.5 13.1 334 10.8
2006-04-20 07:47:54 51°15.915 2°53.604 338.2 13.1 333 11.3
2006-04-20 07:48:54 51°16.106 2°53.444 335.5 13 330 11.8
2006-04-20 07:49:54 51°16.298 2°53.278 339.1 13.2 334 12
2006-04-20 07:50:54 51°16.492 2°53.115 336.2 13.2 332 12
2006-04-20 07:51:54 51°16.688 2°52.956 337.3 13.3 332 11.4
2006-04-20 07:52:54 51°16.883 2°52.8 340.7 13 336 9.4
2006-04-20 07:53:54 51°17.093 2°52.712 357 13.2 353 10.2
2006-04-20 07:54:54 51°17.311 2°52.676 357.4 13.2 351 10.1
2006-04-20 07:55:54 51°17.526 2°52.619 356.3 13.1 350 10.3
2006-04-20 07:56:54 51°17.743 2°52.588 2.1 13.1 356 10.6
2006-04-20 07:57:54 51°17.959 2°52.576 11.9 13 6 10.7
2006-04-20 07:58:54 51°18.171 2°52.642 22 12.9 17 10.9
2006-04-20 07:59:54 51°18.347 2°52.823 49.2 12.8 44 11.3
2006-04-20 08:00:54 51°18.471 2°53.093 65.5 12.6 62 11.4
2006-04-20 08:01:54 51°18.548 2°53.4 73.3 12.5 67 11.4
2006-04-20 08:02:54 51°18.639 2°53.699 69.4 12.5 65 11.5
2006-04-20 08:03:54 51°18.73 2°53.998 68.8 12.5 64 11.4
2006-04-20 08:04:54 51°18.818 2°54.3 68.9 12.5 63 11.4
2006-04-20 08:05:54 51°18.909 2°54.599 68.2 12.4 64 11.4
2006-04-20 08:06:54 51°18.999 2°54.897 70.1 12.5 66 11.4
2006-04-20 08:07:54 51°19.089 2°55.193 67 12.3 63 11.4
2006-04-20 08:08:54 51°19.176 2°55.493 69.3 12.4 64 11.3
2006-04-20 08:09:54 51°19.263 2°55.792 70.1 12.4 65 11.1
2006-04-20 08:10:54 51°19.352 2°56.09 68.2 12.4 63 10.9
2006-04-20 08:11:54 51°19.438 2°56.388 67.7 12.3 62 10.9
2006-04-20 08:12:54 51°19.529 2°56.682 68.6 12.4 64 10.9
2006-04-20 08:13:54 51°19.62 2°56.975 68.1 12.3 64 10.7
2006-04-20 08:14:54 51°19.707 2°57.27 68.6 12.3 63 10.8
2006-04-20 08:15:54 51°19.797 2°57.56 69.3 12.2 65 10.6
2006-04-20 08:16:54 51°19.882 2°57.855 69 12.2 64 10.5
2006-04-20 08:17:54 51°19.97 2°58.146 69.6 12.2 66 10.4
2006-04-20 08:18:54 51°20.055 2°58.441 69.5 12.2 64 10.4
2006-04-20 08:19:54 51°20.146 2°58.733 69.5 12.3 65 10.3
2006-04-20 08:20:54 51°20.236 2°59.024 68.2 12.3 63 10.3
2006-04-20 08:21:54 51°20.326 2°59.316 70.3 12.2 64 10.4
2006-04-20 08:22:54 51°20.416 2°59.612 71.1 12.4 65 10.4
2006-04-20 08:23:54 51°20.51 2°59.906 70.6 12.4 63 10.4
2006-04-20 08:24:54 51°20.607 3°0.198 69.4 12.4 62 10.5
2006-04-20 08:25:54 51°20.702 3°0.489 70 12.3 63 10.5
2006-04-20 08:26:54 51°20.796 3°0.781 67.3 12.4 61 10.5
2006-04-20 08:27:54 51°20.906 3°1.061 66 12.4 59 10.6
2006-04-20 08:28:54 51°21.004 3°1.345 69.4 12 63 10.7
2006-04-20 08:29:54 51°21.114 3°1.616 61 12.2 55 10.7
2006-04-20 08:30:54 51°21.233 3°1.879 61.1 12.2 54 10.8
2006-04-20 08:31:54 51°21.351 3°2.143 61.1 12.2 55 11.1
2006-04-20 08:32:54 51°21.465 3°2.412 62.3 12.2 56 11.1
2006-04-20 08:33:54 51°21.57 3°2.689 72.8 12.1 68 11.2
2006-04-20 08:34:54 51°21.612 3°3 83 12 76 11.3
2006-04-20 08:35:54 51°21.685 3°3.297 76.8 12.1 72 11.3
2006-04-20 08:36:54 51°21.752 3°3.599 77.7 12 72 11.3
2006-04-20 08:37:54 51°21.811 3°3.906 78.8 12.1 74 11.4
2006-04-20 08:38:54 51°21.872 3°4.212 78.5 12.1 74 11.4
2006-04-20 08:39:54 51°21.928 3°4.521 78.3 12.1 73 11.5
2006-04-20 08:40:54 51°21.981 3°4.83 79.5 12.1 76 11.6
2006-04-20 08:41:54 51°22.03 3°5.141 79.4 12 74 11.7
2006-04-20 08:42:54 51°22.08 3°5.449 80.1 11.9 74 11.6
2006-04-20 08:43:54 51°22.134 3°5.757 80.5 12 76 11.7
2006-04-20 08:44:54 51°22.179 3°6.064 79.6 11.8 74 11.9
2006-04-20 08:45:54 51°22.221 3°6.372 82.7 11.9 78 12
2006-04-20 08:46:54 51°22.26 3°6.678 81.8 11.7 79 12
2006-04-20 08:47:54 51°22.299 3°6.983 82.5 11.8 77 12
2006-04-20 08:48:54 51°22.342 3°7.289 81.9 11.8 79 12
2006-04-20 08:49:54 51°22.38 3°7.595 82.3 11.7 79 12.2
2006-04-20 08:50:54 51°22.423 3°7.901 80.5 11.8 76 12.2
2006-04-20 08:51:54 51°22.467 3°8.207 80.7 11.8 75 12.4
2006-04-20 08:52:54 51°22.507 3°8.492 83 9.7 78 12.5
2006-04-20 08:53:54 51°22.524 3°8.672 83.2 5.6 75 12.6
2006-04-20 08:54:54 51°22.554 3°8.81 83.7 5.3 77 12.7
2006-04-20 08:55:54 51°22.591 3°8.932 66.7 4.7 58 12.7
2006-04-20 08:56:54 51°22.607 3°9.032 94.1 3.5 90 12.8
2006-04-20 08:57:54 51°22.618 3°9.115 71.9 2.6 63 12.7
2006-04-20 08:58:54 51°22.621 3°9.129 102.3 0.2 169 12.8
2006-04-20 08:59:54 51°22.617 3°9.126 113.2 0.4 218 12.7
2006-04-20 09:00:54 51°22.612 3°9.119 115.1 0.5 232 12.7
2006-04-20 09:01:54 51°22.608 3°9.109 114.6 0.5 245 12.7
2006-04-20 09:02:54 51°22.604 3°9.097 114.5 0.6 244 12.7
2006-04-20 09:03:54 51°22.6 3°9.083 114.5 0.6 250 12.7
2006-04-20 09:04:54 51°22.583 3°9.085 149.4 2.7 169 12.8
2006-04-20 09:05:54 51°22.499 3°9.091 175.5 6.9 182 12.7
2006-04-20 09:06:54 51°22.371 3°9.029 202.7 8.8 205 12.4
2006-04-20 09:07:54 51°22.237 3°8.938 198.3 7.9 203 12.2
2006-04-20 09:08:54 51°22.142 3°8.847 221.7 6.1 225 11.9
2006-04-20 09:09:54 51°22.088 3°8.723 240.9 5.6 239 11.7
2006-04-20 09:10:54 51°22.053 3°8.592 258.5 5.3 253 11.6
2006-04-20 09:11:54 51°22.033 3°8.455 266 5.2 260 11.5
2006-04-20 09:12:54 51°22.014 3°8.321 262.8 5.1 256 11.3
2006-04-20 09:13:54 51°21.992 3°8.189 260.1 5.1 257 11.3
2006-04-20 09:14:54 51°21.972 3°8.07 259.6 4.2 257 11.2
2006-04-20 09:15:54 51°21.957 3°7.972 261.2 3.6 258 11.1
2006-04-20 09:16:54 51°21.946 3°7.883 262.9 3.3 259 11.1
2006-04-20 09:17:54 51°21.937 3°7.8 264.1 3.1 262 11.2
2006-04-20 09:18:54 51°21.93 3°7.721 263.5 3 261 11.1
2006-04-20 09:19:54 51°21.924 3°7.644 262 2.9 263 11.2
2006-04-20 09:20:54 51°21.918 3°7.571 257.8 2.8 262 11.2
2006-04-20 09:21:54 51°21.91 3°7.499 253.1 2.7 260 11.1
2006-04-20 09:22:54 51°21.902 3°7.429 250.7 2.7 259 11.1
2006-04-20 09:23:54 51°21.893 3°7.358 249.8 2.7 258 11.1
2006-04-20 09:24:54 51°21.884 3°7.287 248.7 2.8 257 11
2006-04-20 09:25:54 51°21.874 3°7.216 249.5 2.7 259 11
2006-04-20 09:26:54 51°21.866 3°7.146 251.1 2.7 258 10.9
2006-04-20 09:27:54 51°21.857 3°7.074 251.4 2.7 259 10.9
2006-04-20 09:28:54 51°21.849 3°7.003 250.1 2.7 259 10.9
2006-04-20 09:29:54 51°21.84 3°6.932 247.5 2.7 256 10.8
2006-04-20 09:30:54 51°21.83 3°6.861 246 2.8 256 10.8
2006-04-20 09:31:54 51°21.822 3°6.787 259.7 3 265 10.8
2006-04-20 09:32:54 51°21.827 3°6.692 296.8 3.9 285 10.8
2006-04-20 09:33:54 51°21.858 3°6.598 326.5 4.1 304 11
2006-04-20 09:34:54 51°21.904 3°6.52 347.8 3.9 323 11
2006-04-20 09:35:54 51°21.958 3°6.493 28.3 3.1 359 11.1
2006-04-20 09:36:54 51°21.991 3°6.511 66.8 1.3 42 11.3
2006-04-20 09:37:54 51°21.984 3°6.548 124 2.9 143 11.1
2006-04-20 09:38:54 51°21.881 3°6.601 154.9 10.3 161 10.8
2006-04-20 09:39:54 51°21.68 3°6.596 186.1 13.1 192 10.2
2006-04-20 09:40:54 51°21.467 3°6.501 189.5 13.4 194 9.6
2006-04-20 09:41:54 51°21.253 3°6.396 193.7 13.6 198 8.8
2006-04-20 09:42:54 51°21.038 3°6.293 191.4 13.4 194 7.7
2006-04-20 09:43:54 51°20.831 3°6.176 202.1 13.4 205 6.8
2006-04-20 09:44:54 51°20.629 3°6.036 202.3 13 205 6.5
2006-04-20 09:45:54 51°20.428 3°5.895 197.6 13.2 199 6.6
2006-04-20 09:46:54 51°20.223 3°5.766 201.9 13.2 202 6.7
2006-04-20 09:47:54 51°20.012 3°5.671 193.2 13.4 198 6.9
2006-04-20 09:48:54 51°19.837 3°5.45 225.2 13.5 223 6.9
2006-04-20 09:49:54 51°19.715 3°5.197 242.8 10.1 243 7.2
2006-04-20 09:50:54 51°19.682 3°5.002 271.2 5.4 260 5.4
2006-04-20 09:51:54 51°19.667 3°4.941 238.5 0.1 2 5.4
2006-04-20 09:52:54 51°19.668 3°4.931 232.3 0.4 267 7.3
2006-04-20 09:53:54 51°19.668 3°4.916 235.2 0.6 270 5.5
2006-04-20 09:54:54 51°19.667 3°4.901 240.6 0.6 265 7.3
2006-04-20 09:55:54 51°19.663 3°4.886 248.9 0.6 255 7.3
2006-04-20 09:56:54 51°19.654 3°4.857 247 2.8 242 7.3
2006-04-20 09:57:54 51°19.597 3°4.772 210.3 5.7 214 7.3
2006-04-20 09:58:54 51°19.5 3°4.724 182 6.4 187 5.4
2006-04-20 09:59:54 51°19.395 3°4.722 171.9 6.1 182 7.2
2006-04-20 10:00:54 51°19.3 3°4.723 164.5 5.2 174 5.5
2006-04-20 10:01:54 51°19.216 3°4.699 204.5 5.4 211 7.6
2006-04-20 10:02:54 51°19.15 3°4.591 232.4 5.9 230 -999
2006-04-20 10:03:54 51°19.086 3°4.47 227.9 6 228 7.8
2006-04-20 10:04:54 51°19.031 3°4.367 229 4.4 231 7.7
2006-04-20 10:05:54 51°18.992 3°4.285 230 3.5 233 7.7
2006-04-20 10:06:54 51°18.959 3°4.217 227.9 3 231 7.8
2006-04-20 10:07:54 51°18.93 3°4.155 227.3 2.8 233 7.7
2006-04-20 10:08:54 51°18.901 3°4.096 227.8 2.7 230 7.9
2006-04-20 10:09:54 51°18.875 3°4.039 228.6 2.7 231 7.8
2006-04-20 10:10:54 51°18.849 3°3.981 229.7 2.6 234 7.8
2006-04-20 10:11:54 51°18.824 3°3.921 233.8 2.9 236 7.7
2006-04-20 10:12:54 51°18.795 3°3.855 233.6 3.1 236 7.7
2006-04-20 10:13:54 51°18.764 3°3.785 234 3.3 233 7.9
2006-04-20 10:14:54 51°18.732 3°3.714 233.3 3.3 232 7.7
2006-04-20 10:15:54 51°18.7 3°3.644 233.2 3.3 234 7.8
2006-04-20 10:16:54 51°18.669 3°3.572 235.5 3.3 237 7.8
2006-04-20 10:17:54 51°18.639 3°3.501 234.4 3.2 235 7.9
2006-04-20 10:18:54 51°18.61 3°3.429 237.3 3.1 239 7.8
2006-04-20 10:19:54 51°18.586 3°3.357 240.2 3 241 7.8
2006-04-20 10:20:54 51°18.564 3°3.286 241.9 3 244 7.8
2006-04-20 10:21:54 51°18.541 3°3.216 240.9 3 242 7.8
2006-04-20 10:22:54 51°18.517 3°3.146 238 3 240 7.8
2006-04-20 10:23:54 51°18.489 3°3.078 235.2 3.1 238 7.8
2006-04-20 10:24:54 51°18.461 3°3.01 235.5 3 236 7.8
2006-04-20 10:25:54 51°18.433 3°2.944 234.7 3 234 7.8
2006-04-20 10:26:54 51°18.403 3°2.88 232.8 3 233 7.8
2006-04-20 10:27:53 51°18.374 3°2.818 234.2 3 234 7.8
2006-04-20 10:28:54 51°18.345 3°2.752 235.8 3 236 7.8
2006-04-20 10:29:54 51°18.321 3°2.673 258.3 3.7 253 7.8
2006-04-20 10:30:54 51°18.304 3°2.574 264.2 4 258 8
2006-04-20 10:31:54 51°18.299 3°2.469 281.9 4 269 7.9
2006-04-20 10:32:54 51°18.31 3°2.368 309.1 3.7 292 7.9
2006-04-20 10:33:54 51°18.341 3°2.282 314 3.6 295 7.9
2006-04-20 10:34:54 51°18.353 3°2.201 288.1 3 274 7.8
2006-04-20 10:35:54 51°18.338 3°2.103 252.3 4.3 249 7.8
2006-04-20 10:36:54 51°18.297 3°1.989 239.7 6.4 238 8
2006-04-20 10:37:54 51°18.206 3°1.767 238.8 11.8 237 7.9
2006-04-20 10:38:54 51°18.093 3°1.485 240.9 13.3 241 7.8
2006-04-20 10:39:54 51°17.979 3°1.176 241 13.5 238 7.7
2006-04-20 10:40:54 51°17.843 3°0.884 231.4 13.8 231 7.8
2006-04-20 10:41:54 51°17.733 3°0.562 246.9 13.9 244 7.9
2006-04-20 10:42:54 51°17.622 3°0.237 238.6 13.9 235 8.1
2006-04-20 10:43:54 51°17.503 2°59.92 246.8 14 244 8.1
2006-04-20 10:44:54 51°17.392 2°59.591 239.7 14.1 237 8.1
2006-04-20 10:45:54 51°17.272 2°59.272 246.8 14 246 8.2
2006-04-20 10:46:54 51°17.156 2°58.947 237 14.1 236 8.2
2006-04-20 10:47:54 51°17.047 2°58.615 247.1 14.2 245 8.2
2006-04-20 10:48:54 51°16.926 2°58.292 235.9 14.2 235 8.2
2006-04-20 10:49:54 51°16.81 2°57.963 247.2 14.2 245 8.2
2006-04-20 10:50:54 51°16.684 2°57.648 232.7 14.1 231 8.3
2006-04-20 10:51:54 51°16.56 2°57.329 245.7 14.1 244 8.2
2006-04-20 10:52:54 51°16.46 2°56.989 244.5 14.1 241 8.3
2006-04-20 10:53:54 51°16.327 2°56.679 238.4 14.2 239 8.2
2006-04-20 10:54:54 51°16.213 2°56.35 241.3 14.1 238 8.3
2006-04-20 10:55:54 51°16.069 2°56.055 232.9 14.2 233 8.2
2006-04-20 10:56:54 51°15.944 2°55.739 236.6 14 234 8.3
2006-04-20 10:57:54 51°15.796 2°55.451 233.1 14 233 8.1
2006-04-20 10:58:54 51°15.651 2°55.165 222.7 13.8 220 8
2006-04-20 10:59:55 51°15.453 2°54.978 203.5 13.6 204 7.6
2006-04-20 11:00:54 51°15.244 2°54.883 192.8 13 191 7
2006-04-20 11:01:54 51°15.03 2°54.84 186.8 13.2 186 7.5
2006-04-20 11:02:54 51°14.81 2°54.798 183.6 13.3 183 7.9
2006-04-20 11:03:54 51°14.598 2°54.862 160.4 12.9 160 8.1
2006-04-20 11:04:54 51°14.416 2°55.034 141.9 12.6 140 8.6
2006-04-20 11:05:54 51°14.283 2°55.246 139 9.8 136 -999
2006-04-20 11:06:54 51°14.174 2°55.373 155.2 7.2 152 -999
2006-04-20 11:07:54 51°14.079 2°55.444 157.9 6.1 155 9.2
2006-04-20 11:08:54 51°13.991 2°55.509 158.9 5.4 156 9.1
2006-04-20 11:09:54 51°13.914 2°55.568 158.8 4.9 155 -999
2006-04-20 11:10:54 51°13.848 2°55.617 158.4 4.1 155 9.1
2006-04-20 11:11:54 51°13.795 2°55.666 148.9 3.4 144 9.3
2006-04-20 11:12:54 51°13.752 2°55.729 137.4 3.6 133 8.4
2006-04-20 11:13:54 51°13.711 2°55.805 133.8 3.9 129 9
2006-04-20 11:14:54 51°13.671 2°55.889 130.5 4.1 126 7.8
2006-04-20 11:15:54 51°13.635 2°55.97 129.1 3.4 125 8.1
2006-04-20 11:16:54 51°13.61 2°56.04 116.1 2.7 112 8.1
2006-04-20 11:17:54 51°13.6 2°56.092 110.7 0.5 109 4.9
2006-04-20 11:18:54 51°13.6 2°56.092 113.8 0.3 304 5.1
2006-04-20 11:19:54 51°13.599 2°56.097 111.2 0.3 109 4.7
2006-04-20 11:20:55 51°13.6 2°56.1 110.6 -999 30 -999
2006-04-20 11:21:55 51°13.601 2°56.1 122.6 0.1 9 -999
2006-04-20 11:22:54 51°13.602 2°56.1 125.2 0.1 88 -999